createdAt,value
2017-06-24T00:00:51.051Z,0
2017-06-24T00:01:50.722Z,0
2017-06-24T00:02:50.716Z,0
2017-06-24T00:03:51.014Z,0
2017-06-24T00:04:50.378Z,0
2017-06-24T00:05:50.699Z,0
2017-06-24T00:06:50.365Z,0
2017-06-24T00:07:50.978Z,0
2017-06-24T00:08:50.344Z,0
2017-06-24T00:09:50.640Z,0
2017-06-24T00:10:50.641Z,0
2017-06-24T00:11:50.316Z,0
2017-06-24T00:12:50.622Z,0
2017-06-24T00:13:50.919Z,0
2017-06-24T00:14:50.910Z,0
2017-06-24T00:15:50.593Z,0
2017-06-24T00:16:50.890Z,0
2017-06-24T00:17:50.565Z,0
2017-06-24T00:18:50.899Z,0
2017-06-24T00:19:50.435Z,0
2017-06-24T00:20:50.535Z,0
2017-06-24T00:21:50.219Z,0
2017-06-24T00:22:50.830Z,0
2017-06-24T00:23:50.508Z,0
2017-06-24T00:24:50.199Z,0
2017-06-24T00:25:50.804Z,0
2017-06-24T00:26:50.479Z,0
2017-06-24T00:27:50.155Z,0
2017-06-24T00:28:50.463Z,0
2017-06-24T00:29:50.768Z,0
2017-06-24T00:30:50.755Z,0
2017-06-24T00:31:49.809Z,0
2017-06-24T00:32:50.731Z,0
2017-06-24T00:33:50.721Z,0
2017-06-24T00:34:50.095Z,0
2017-06-24T00:35:50.389Z,0
2017-06-24T00:36:50.697Z,0
2017-06-24T00:37:50.697Z,0
2017-06-24T00:38:50.360Z,0
2017-06-24T00:39:50.403Z,0
2017-06-24T00:40:50.858Z,0
2017-06-24T00:41:50.335Z,0
2017-06-24T00:42:50.011Z,0
2017-06-24T00:43:50.632Z,0
2017-06-24T00:44:49.991Z,0
2017-06-24T00:45:50.610Z,0
2017-06-24T00:46:50.599Z,0
2017-06-24T00:47:50.587Z,0
2017-06-24T00:48:50.267Z,0
2017-06-24T00:49:50.286Z,0
2017-06-24T00:50:50.249Z,0
2017-06-24T00:51:49.920Z,0
2017-06-24T00:52:49.912Z,0
2017-06-24T00:53:50.528Z,0
2017-06-24T00:54:50.210Z,0
2017-06-24T00:55:50.194Z,0
2017-06-24T00:56:49.871Z,0
2017-06-24T00:57:50.178Z,0
2017-06-24T00:58:49.849Z,0
2017-06-24T00:59:49.853Z,0
2017-06-24T01:00:50.147Z,0
2017-06-24T01:01:50.139Z,0
2017-06-24T01:02:50.131Z,0
2017-06-24T01:03:50.432Z,0
2017-06-24T01:04:50.416Z,0
2017-06-24T01:05:50.407Z,0
2017-06-24T01:06:50.104Z,0
2017-06-24T01:07:50.076Z,0
2017-06-24T01:08:49.747Z,0
2017-06-24T01:09:49.428Z,0
2017-06-24T01:10:50.366Z,0
2017-06-24T01:11:50.037Z,0
2017-06-24T01:12:50.026Z,0
2017-06-24T01:13:50.330Z,0
2017-06-24T01:14:50.007Z,0
2017-06-24T01:15:50.335Z,0
2017-06-24T01:16:49.985Z,0
2017-06-24T01:17:49.972Z,0
2017-06-24T01:18:49.962Z,0
2017-06-24T01:19:49.641Z,0
2017-06-24T01:20:49.946Z,0
2017-06-24T01:21:50.250Z,0
2017-06-24T01:22:50.241Z,0
2017-06-24T01:23:50.231Z,0
2017-06-24T01:24:50.216Z,0
2017-06-24T01:25:49.584Z,0
2017-06-24T01:26:50.208Z,0
2017-06-24T01:27:49.876Z,0
2017-06-24T01:28:49.551Z,0
2017-06-24T01:29:50.166Z,0
2017-06-24T01:30:50.155Z,0
2017-06-24T01:31:50.144Z,0
2017-06-24T01:32:49.825Z,0
2017-06-24T01:33:49.811Z,0
2017-06-24T01:34:49.802Z,0
2017-06-24T01:35:49.792Z,0
2017-06-24T01:36:50.010Z,0
2017-06-24T01:37:49.772Z,0
2017-06-24T01:38:50.097Z,0
2017-06-24T01:39:50.064Z,0
2017-06-24T01:40:49.789Z,0
2017-06-24T01:41:50.047Z,0
2017-06-24T01:42:49.720Z,0
2017-06-24T01:43:49.707Z,0
2017-06-24T01:44:49.078Z,0
2017-06-24T01:45:49.372Z,0
2017-06-24T01:46:49.681Z,0
2017-06-24T01:47:49.986Z,0
2017-06-24T01:48:49.654Z,0
2017-06-24T01:49:49.645Z,0
2017-06-24T01:50:49.633Z,0
2017-06-24T01:51:49.627Z,0
2017-06-24T01:52:49.620Z,0
2017-06-24T01:53:49.919Z,0
2017-06-24T01:54:49.280Z,0
2017-06-24T01:55:49.269Z,0
2017-06-24T01:56:49.257Z,0
2017-06-24T01:57:49.559Z,0
2017-06-24T01:58:49.862Z,0
2017-06-24T01:59:49.545Z,0
2017-06-24T02:00:49.846Z,0
2017-06-24T02:01:49.230Z,0
2017-06-24T02:02:49.534Z,0
2017-06-24T02:03:49.572Z,0
2017-06-24T02:04:49.491Z,0
2017-06-24T02:05:49.475Z,0
2017-06-24T02:06:49.779Z,0
2017-06-24T02:07:49.465Z,0
2017-06-24T02:08:49.442Z,0
2017-06-24T02:09:49.436Z,0
2017-06-24T02:10:49.117Z,0
2017-06-24T02:11:49.750Z,0
2017-06-24T02:12:49.713Z,0
2017-06-24T02:13:49.705Z,0
2017-06-24T02:14:49.069Z,0
2017-06-24T02:15:49.685Z,0
2017-06-24T02:16:49.048Z,0
2017-06-24T02:17:49.664Z,0
2017-06-24T02:18:49.030Z,0
2017-06-24T02:19:49.638Z,0
2017-06-24T02:20:49.319Z,0
2017-06-24T02:21:49.636Z,0
2017-06-24T02:22:49.615Z,0
2017-06-24T02:23:49.607Z,0
2017-06-24T02:24:48.971Z,0
2017-06-24T02:25:49.267Z,0
2017-06-24T02:26:48.942Z,0
2017-06-24T02:27:48.936Z,0
2017-06-24T02:28:49.554Z,0
2017-06-24T02:29:49.222Z,0
2017-06-24T02:30:49.208Z,0
2017-06-24T02:31:49.206Z,0
2017-06-24T02:32:48.885Z,0
2017-06-24T02:33:49.507Z,0
2017-06-24T02:34:48.852Z,0
2017-06-24T02:35:48.864Z,4
2017-06-24T02:36:49.164Z,4
2017-06-24T02:37:49.155Z,4
2017-06-24T02:38:48.809Z,4
2017-06-24T02:39:48.809Z,0
2017-06-24T02:40:49.436Z,4
2017-06-24T02:41:48.798Z,4
2017-06-24T02:42:49.401Z,4
2017-06-24T02:43:49.065Z,4
2017-06-24T02:44:49.059Z,4
2017-06-24T02:45:49.050Z,8
2017-06-24T02:46:48.719Z,8
2017-06-24T02:47:49.343Z,8
2017-06-24T02:48:49.014Z,12
2017-06-24T02:49:49.004Z,12
2017-06-24T02:50:48.995Z,16
2017-06-24T02:51:48.977Z,16
2017-06-24T02:52:49.278Z,16
2017-06-24T02:53:48.955Z,20
2017-06-24T02:54:48.638Z,20
2017-06-24T02:55:48.930Z,24
2017-06-24T02:56:48.946Z,24
2017-06-24T02:57:48.918Z,28
2017-06-24T02:58:48.591Z,32
2017-06-24T02:59:48.581Z,32
2017-06-24T03:00:48.565Z,36
2017-06-24T03:01:48.867Z,44
2017-06-24T03:02:49.169Z,44
2017-06-24T03:03:48.222Z,48
2017-06-24T03:04:49.151Z,52
2017-06-24T03:05:48.830Z,60
2017-06-24T03:06:48.816Z,68
2017-06-24T03:07:48.802Z,72
2017-06-24T03:08:49.107Z,76
2017-06-24T03:09:48.778Z,84
2017-06-24T03:10:48.463Z,88
2017-06-24T03:11:48.443Z,92
2017-06-24T03:12:48.749Z,104
2017-06-24T03:13:49.052Z,112
2017-06-24T03:14:48.722Z,120
2017-06-24T03:15:48.398Z,132
2017-06-24T03:16:48.707Z,140
2017-06-24T03:17:48.694Z,148
2017-06-24T03:18:48.683Z,160
2017-06-24T03:19:48.355Z,168
2017-06-24T03:20:48.658Z,180
2017-06-24T03:21:48.357Z,196
2017-06-24T03:22:48.635Z,208
2017-06-24T03:23:48.625Z,220
2017-06-24T03:24:48.304Z,232
2017-06-24T03:25:48.309Z,248
2017-06-24T03:26:48.591Z,268
2017-06-24T03:27:48.265Z,280
2017-06-24T03:28:48.569Z,296
2017-06-24T03:29:48.254Z,316
2017-06-24T03:30:48.539Z,332
2017-06-24T03:31:48.537Z,348
2017-06-24T03:32:48.520Z,372
2017-06-24T03:33:48.820Z,396
2017-06-24T03:34:47.879Z,408
2017-06-24T03:35:48.802Z,424
2017-06-24T03:36:48.682Z,436
2017-06-24T03:37:48.158Z,448
2017-06-24T03:38:48.769Z,460
2017-06-24T03:39:48.753Z,476
2017-06-24T03:40:48.116Z,492
2017-06-24T03:41:48.110Z,508
2017-06-24T03:42:48.410Z,516
2017-06-24T03:43:48.082Z,528
2017-06-24T03:44:48.702Z,540
2017-06-24T03:45:48.688Z,560
2017-06-24T03:46:48.374Z,576
2017-06-24T03:47:48.352Z,596
2017-06-24T03:48:48.339Z,612
2017-06-24T03:49:48.331Z,628
2017-06-24T03:50:48.011Z,644
2017-06-24T03:51:48.314Z,660
2017-06-24T03:52:48.293Z,672
2017-06-24T03:53:47.981Z,684
2017-06-24T03:54:47.660Z,700
2017-06-24T03:55:47.952Z,712
2017-06-24T03:56:47.942Z,732
2017-06-24T03:57:48.234Z,752
2017-06-24T03:58:48.542Z,772
2017-06-24T03:59:48.222Z,800
2017-06-24T04:00:48.201Z,836
2017-06-24T04:01:48.193Z,888
2017-06-24T04:02:48.495Z,920
2017-06-24T04:03:48.173Z,940
2017-06-24T04:04:48.159Z,960
2017-06-24T04:05:48.461Z,988
2017-06-24T04:06:48.451Z,1040
2017-06-24T04:07:48.172Z,1064
2017-06-24T04:08:48.422Z,1076
2017-06-24T04:09:48.413Z,1088
2017-06-24T04:10:48.398Z,1084
2017-06-24T04:11:48.080Z,1096
2017-06-24T04:12:47.762Z,1132
2017-06-24T04:13:48.369Z,1160
2017-06-24T04:14:47.727Z,1180
2017-06-24T04:15:48.342Z,1240
2017-06-24T04:16:48.064Z,1324
2017-06-24T04:17:48.008Z,1296
2017-06-24T04:18:47.993Z,1300
2017-06-24T04:19:48.299Z,1424
2017-06-24T04:20:48.450Z,1404
2017-06-24T04:21:48.275Z,1364
2017-06-24T04:22:48.268Z,1432
2017-06-24T04:23:47.940Z,1428
2017-06-24T04:24:47.926Z,1420
2017-06-24T04:25:47.922Z,1408
2017-06-24T04:26:48.248Z,1468
2017-06-24T04:27:47.895Z,1460
2017-06-24T04:28:47.881Z,1436
2017-06-24T04:29:47.870Z,1488
2017-06-24T04:30:47.861Z,1556
2017-06-24T04:31:47.544Z,1628
2017-06-24T04:32:47.889Z,1664
2017-06-24T04:33:48.141Z,1648
2017-06-24T04:34:47.505Z,1668
2017-06-24T04:35:47.493Z,1680
2017-06-24T04:36:47.790Z,1764
2017-06-24T04:37:48.094Z,1724
2017-06-24T04:38:47.457Z,1712
2017-06-24T04:39:47.451Z,1764
2017-06-24T04:40:48.057Z,1792
2017-06-24T04:41:47.108Z,1708
2017-06-24T04:42:47.410Z,1732
2017-06-24T04:43:48.026Z,1800
2017-06-24T04:44:47.703Z,1768
2017-06-24T04:45:47.387Z,1728
2017-06-24T04:46:47.059Z,1736
2017-06-24T04:47:47.046Z,1788
2017-06-24T04:48:47.658Z,1808
2017-06-24T04:49:47.338Z,1752
2017-06-24T04:50:47.949Z,1812
2017-06-24T04:51:46.999Z,1848
2017-06-24T04:52:47.616Z,1868
2017-06-24T04:53:47.289Z,1780
2017-06-24T04:54:47.913Z,1720
2017-06-24T04:55:47.584Z,1692
2017-06-24T04:56:47.887Z,1748
2017-06-24T04:57:47.576Z,1748
2017-06-24T04:58:47.542Z,1700
2017-06-24T04:59:47.855Z,1760
2017-06-24T05:00:47.836Z,1736
2017-06-24T05:01:47.515Z,1696
2017-06-24T05:02:47.201Z,1820
2017-06-24T05:03:47.201Z,1896
2017-06-24T05:04:47.178Z,2096
2017-06-24T05:05:47.481Z,2324
2017-06-24T05:06:47.159Z,2380
2017-06-24T05:07:47.762Z,2276
2017-06-24T05:08:47.439Z,2188
2017-06-24T05:09:47.120Z,2044
2017-06-24T05:10:47.422Z,1972
2017-06-24T05:11:47.616Z,1828
2017-06-24T05:12:46.808Z,1716
2017-06-24T05:13:47.712Z,1724
2017-06-24T05:14:47.686Z,1816
2017-06-24T05:15:47.369Z,1680
2017-06-24T05:16:47.045Z,1768
2017-06-24T05:17:47.029Z,1856
2017-06-24T05:18:47.329Z,1900
2017-06-24T05:19:47.337Z,1952
2017-06-24T05:20:47.310Z,2000
2017-06-24T05:21:47.633Z,1988
2017-06-24T05:22:47.304Z,2040
2017-06-24T05:23:47.166Z,2088
2017-06-24T05:24:47.274Z,2100
2017-06-24T05:25:47.284Z,2400
2017-06-24T05:26:46.925Z,2524
2017-06-24T05:27:46.921Z,2596
2017-06-24T05:28:47.217Z,2764
2017-06-24T05:29:47.228Z,2484
2017-06-24T05:30:47.202Z,2404
2017-06-24T05:31:47.190Z,2404
2017-06-24T05:32:47.376Z,2312
2017-06-24T05:33:47.177Z,2212
2017-06-24T05:34:47.156Z,2288
2017-06-24T05:35:47.457Z,2652
2017-06-24T05:36:47.667Z,2640
2017-06-24T05:37:47.122Z,2584
2017-06-24T05:38:47.109Z,2360
2017-06-24T05:39:47.614Z,2424
2017-06-24T05:40:46.775Z,2572
2017-06-24T05:41:47.087Z,2360
2017-06-24T05:42:46.749Z,2312
2017-06-24T05:43:46.743Z,2192
2017-06-24T05:44:46.738Z,2064
2017-06-24T05:45:47.035Z,2020
2017-06-24T05:46:47.027Z,1956
2017-06-24T05:47:46.731Z,1928
2017-06-24T05:48:46.698Z,1948
2017-06-24T05:49:47.001Z,2084
2017-06-24T05:50:46.983Z,2064
2017-06-24T05:51:46.344Z,2080
2017-06-24T05:52:46.979Z,2016
2017-06-24T05:53:46.954Z,2028
2017-06-24T05:54:46.940Z,2000
2017-06-24T05:55:46.614Z,2016
2017-06-24T05:56:47.229Z,2068
2017-06-24T05:57:47.217Z,2176
2017-06-24T05:58:46.266Z,2556
2017-06-24T05:59:46.254Z,2856
2017-06-24T06:00:46.877Z,2792
2017-06-24T06:01:47.171Z,2940
2017-06-24T06:02:46.543Z,3208
2017-06-24T06:03:47.153Z,3420
2017-06-24T06:04:46.826Z,3580
2017-06-24T06:05:46.834Z,4172
2017-06-24T06:06:47.119Z,4252
2017-06-24T06:07:46.484Z,3912
2017-06-24T06:08:47.098Z,3904
2017-06-24T06:09:46.775Z,4308
2017-06-24T06:10:46.768Z,4612
2017-06-24T06:11:46.752Z,4836
2017-06-24T06:12:46.739Z,4976
2017-06-24T06:13:46.731Z,4964
2017-06-24T06:14:46.745Z,5032
2017-06-24T06:15:46.714Z,5136
2017-06-24T06:16:46.703Z,5008
2017-06-24T06:17:46.384Z,5024
2017-06-24T06:18:46.064Z,4888
2017-06-24T06:19:46.994Z,4960
2017-06-24T06:20:46.860Z,5024
2017-06-24T06:21:46.344Z,4752
2017-06-24T06:22:46.645Z,4348
2017-06-24T06:23:46.020Z,4268
2017-06-24T06:24:46.306Z,4364
2017-06-24T06:25:46.299Z,4548
2017-06-24T06:26:46.290Z,4728
2017-06-24T06:27:46.271Z,4836
2017-06-24T06:28:45.950Z,4900
2017-06-24T06:29:46.261Z,4900
2017-06-24T06:30:45.933Z,4744
2017-06-24T06:31:46.233Z,4808
2017-06-24T06:32:46.844Z,4756
2017-06-24T06:33:46.526Z,4828
2017-06-24T06:34:46.518Z,5092
2017-06-24T06:35:46.506Z,5056
2017-06-24T06:36:46.185Z,5136
2017-06-24T06:37:46.167Z,5252
2017-06-24T06:38:46.785Z,5272
2017-06-24T06:39:46.777Z,5140
2017-06-24T06:40:46.509Z,5052
2017-06-24T06:41:46.452Z,5060
2017-06-24T06:42:46.439Z,4824
2017-06-24T06:43:46.736Z,4756
2017-06-24T06:44:46.417Z,4796
2017-06-24T06:45:46.408Z,4864
2017-06-24T06:46:46.084Z,4900
2017-06-24T06:47:46.072Z,5020
2017-06-24T06:48:45.745Z,5112
2017-06-24T06:49:46.674Z,4960
2017-06-24T06:50:46.350Z,4860
2017-06-24T06:51:46.655Z,4924
2017-06-24T06:52:46.328Z,4948
2017-06-24T06:53:46.320Z,4884
2017-06-24T06:54:46.642Z,4928
2017-06-24T06:55:46.296Z,5020
2017-06-24T06:56:45.682Z,5132
2017-06-24T06:57:46.280Z,5064
2017-06-24T06:58:46.583Z,5032
2017-06-24T06:59:46.256Z,5604
2017-06-24T07:00:46.560Z,5864
2017-06-24T07:01:46.556Z,6104
2017-06-24T07:02:45.919Z,6328
2017-06-24T07:03:46.226Z,6460
2017-06-24T07:04:46.519Z,6728
2017-06-24T07:05:46.520Z,7056
2017-06-24T07:06:46.498Z,7504
2017-06-24T07:07:46.192Z,7836
2017-06-24T07:08:46.172Z,8204
2017-06-24T07:09:45.905Z,8028
2017-06-24T07:10:46.164Z,7856
2017-06-24T07:11:45.842Z,7764
2017-06-24T07:12:46.456Z,7888
2017-06-24T07:13:46.442Z,7820
2017-06-24T07:14:45.810Z,8356
2017-06-24T07:15:45.488Z,8960
2017-06-24T07:16:46.099Z,9712
2017-06-24T07:17:46.401Z,9336
2017-06-24T07:18:46.082Z,9108
2017-06-24T07:19:46.075Z,8992
2017-06-24T07:20:45.750Z,9124
2017-06-24T07:21:46.053Z,9468
2017-06-24T07:22:46.044Z,10936
2017-06-24T07:23:46.341Z,8356
2017-06-24T07:24:45.727Z,8500
2017-06-24T07:25:46.331Z,12132
2017-06-24T07:26:45.692Z,15328
2017-06-24T07:27:46.000Z,35648
2017-06-24T07:28:46.303Z,29888
2017-06-24T07:29:46.297Z,48256
2017-06-24T07:30:46.286Z,49408
2017-06-24T07:31:46.273Z,48480
2017-06-24T07:32:45.951Z,48640
2017-06-24T07:33:45.946Z,50560
2017-06-24T07:34:46.252Z,50016
2017-06-24T07:35:45.935Z,50528
2017-06-24T07:36:45.813Z,20960
2017-06-24T07:37:46.238Z,52544
2017-06-24T07:38:45.933Z,50784
2017-06-24T07:39:45.597Z,45376
2017-06-24T07:40:45.594Z,44736
2017-06-24T07:41:45.906Z,44768
2017-06-24T07:42:45.593Z,39392
2017-06-24T07:43:45.604Z,45184
2017-06-24T07:44:45.937Z,58208
2017-06-24T07:45:45.889Z,44576
2017-06-24T07:46:46.200Z,50624
2017-06-24T07:47:45.563Z,28832
2017-06-24T07:48:45.578Z,52800
2017-06-24T07:49:45.862Z,37120
2017-06-24T07:50:46.177Z,10832
2017-06-24T07:51:46.192Z,44224
2017-06-24T07:52:45.552Z,25856
2017-06-24T07:53:46.172Z,33312
2017-06-24T07:54:45.850Z,40768
2017-06-24T07:55:46.187Z,66240
2017-06-24T07:56:45.546Z,57536
2017-06-24T07:57:46.167Z,56064
2017-06-24T07:58:46.150Z,46112
2017-06-24T07:59:45.832Z,57920
2017-06-24T08:00:45.513Z,60480
2017-06-24T08:01:45.847Z,61536
2017-06-24T08:02:45.504Z,60928
2017-06-24T08:03:45.814Z,62176
2017-06-24T08:04:45.811Z,22464
2017-06-24T08:05:46.126Z,16384
2017-06-24T08:06:46.118Z,19712
2017-06-24T08:07:45.488Z,23840
2017-06-24T08:08:45.849Z,17152
2017-06-24T08:09:45.830Z,20896
2017-06-24T08:10:46.108Z,20544
2017-06-24T08:11:45.786Z,19488
2017-06-24T08:12:46.095Z,19968
2017-06-24T08:13:45.785Z,32608
2017-06-24T08:14:45.779Z,18144
2017-06-24T08:15:46.085Z,13540
2017-06-24T08:16:45.765Z,29408
2017-06-24T08:17:46.097Z,68832
2017-06-24T08:18:45.759Z,56800
2017-06-24T08:19:45.765Z,17536
2017-06-24T08:20:45.438Z,24512
2017-06-24T08:21:45.428Z,21856
2017-06-24T08:22:45.438Z,14096
2017-06-24T08:23:46.059Z,14164
2017-06-24T08:24:45.735Z,14344
2017-06-24T08:25:45.418Z,16448
2017-06-24T08:26:45.726Z,15156
2017-06-24T08:27:45.726Z,13424
2017-06-24T08:28:45.091Z,13828
2017-06-24T08:29:45.400Z,13060
2017-06-24T08:30:45.711Z,11924
2017-06-24T08:31:45.699Z,12320
2017-06-24T08:32:45.381Z,10608
2017-06-24T08:33:45.367Z,10672
2017-06-24T08:34:45.988Z,11392
2017-06-24T08:35:45.050Z,9348
2017-06-24T08:36:45.675Z,7896
2017-06-24T08:37:46.001Z,6024
2017-06-24T08:38:45.668Z,5920
2017-06-24T08:39:45.349Z,6520
2017-06-24T08:40:45.402Z,7052
2017-06-24T08:41:45.648Z,8104
2017-06-24T08:42:45.637Z,8144
2017-06-24T08:43:45.630Z,8308
2017-06-24T08:44:45.940Z,8136
2017-06-24T08:45:45.619Z,8036
2017-06-24T08:46:45.608Z,8764
2017-06-24T08:47:45.630Z,10052
2017-06-24T08:48:45.910Z,9064
2017-06-24T08:49:44.969Z,8216
2017-06-24T08:50:45.891Z,8372
2017-06-24T08:51:45.262Z,9224
2017-06-24T08:52:45.567Z,9148
2017-06-24T08:53:45.557Z,8624
2017-06-24T08:54:45.578Z,6884
2017-06-24T08:55:44.920Z,6852
2017-06-24T08:56:45.877Z,7748
2017-06-24T08:57:45.536Z,8748
2017-06-24T08:58:45.214Z,10816
2017-06-24T08:59:45.206Z,15560
2017-06-24T09:00:45.833Z,18336
2017-06-24T09:01:45.188Z,21856
2017-06-24T09:02:45.808Z,18592
2017-06-24T09:03:45.795Z,13324
2017-06-24T09:04:45.490Z,13216
2017-06-24T09:05:45.480Z,17408
2017-06-24T09:06:45.782Z,13312
2017-06-24T09:07:45.154Z,9756
2017-06-24T09:08:45.139Z,5660
2017-06-24T09:09:45.445Z,4244
2017-06-24T09:10:45.438Z,3908
2017-06-24T09:11:45.426Z,3880
2017-06-24T09:12:45.736Z,4168
2017-06-24T09:13:45.743Z,4444
2017-06-24T09:14:45.113Z,4748
2017-06-24T09:15:45.398Z,5304
2017-06-24T09:16:45.706Z,5928
2017-06-24T09:17:45.394Z,6104
2017-06-24T09:18:45.691Z,6544
2017-06-24T09:19:45.372Z,6560
2017-06-24T09:20:45.363Z,7248
2017-06-24T09:21:45.356Z,8204
2017-06-24T09:22:45.668Z,7508
2017-06-24T09:23:45.657Z,6220
2017-06-24T09:24:45.334Z,5928
2017-06-24T09:25:45.643Z,5488
2017-06-24T09:26:45.320Z,5124
2017-06-24T09:27:45.329Z,5012
2017-06-24T09:28:45.614Z,5076
2017-06-24T09:29:45.310Z,5228
2017-06-24T09:30:45.603Z,5228
2017-06-24T09:31:45.624Z,5200
2017-06-24T09:32:45.591Z,4992
2017-06-24T09:33:45.267Z,4996
2017-06-24T09:34:45.564Z,5548
2017-06-24T09:35:44.936Z,5776
2017-06-24T09:36:45.439Z,6052
2017-06-24T09:37:45.541Z,6732
2017-06-24T09:38:44.913Z,7516
2017-06-24T09:39:45.268Z,8376
2017-06-24T09:40:44.588Z,8604
2017-06-24T09:41:45.205Z,8012
2017-06-24T09:42:45.205Z,7472
2017-06-24T09:43:45.511Z,6776
2017-06-24T09:44:45.485Z,6180
2017-06-24T09:45:45.168Z,6036
2017-06-24T09:46:44.865Z,5868
2017-06-24T09:47:45.207Z,5768
2017-06-24T09:48:44.835Z,5976
2017-06-24T09:49:45.145Z,6376
2017-06-24T09:50:45.125Z,6836
2017-06-24T09:51:45.137Z,6912
2017-06-24T09:52:44.809Z,6468
2017-06-24T09:53:45.113Z,6024
2017-06-24T09:54:44.780Z,5616
2017-06-24T09:55:45.405Z,5816
2017-06-24T09:56:45.089Z,5764
2017-06-24T09:57:45.094Z,5644
2017-06-24T09:58:44.773Z,5648
2017-06-24T09:59:45.368Z,5848
2017-06-24T10:00:44.737Z,6012
2017-06-24T10:01:45.037Z,5876
2017-06-24T10:02:44.410Z,5908
2017-06-24T10:03:45.344Z,5660
2017-06-24T10:04:44.701Z,6352
2017-06-24T10:05:45.322Z,8216
2017-06-24T10:06:45.001Z,10216
2017-06-24T10:07:44.989Z,11120
2017-06-24T10:08:44.983Z,11740
2017-06-24T10:09:45.296Z,10108
2017-06-24T10:10:44.972Z,9628
2017-06-24T10:11:44.960Z,10524
2017-06-24T10:12:44.947Z,10980
2017-06-24T10:13:45.258Z,10812
2017-06-24T10:14:45.251Z,11208
2017-06-24T10:15:44.303Z,11492
2017-06-24T10:16:45.240Z,11312
2017-06-24T10:17:44.909Z,10612
2017-06-24T10:18:44.594Z,10096
2017-06-24T10:19:44.905Z,10124
2017-06-24T10:20:45.259Z,10536
2017-06-24T10:21:44.883Z,10612
2017-06-24T10:22:44.873Z,9796
2017-06-24T10:23:44.882Z,9432
2017-06-24T10:24:44.863Z,9776
2017-06-24T10:25:45.170Z,9296
2017-06-24T10:26:44.874Z,8188
2017-06-24T10:27:44.851Z,7396
2017-06-24T10:28:44.862Z,7028
2017-06-24T10:29:44.847Z,6800
2017-06-24T10:30:44.513Z,7384
2017-06-24T10:31:44.184Z,8556
2017-06-24T10:32:44.489Z,9352
2017-06-24T10:33:45.110Z,9312
2017-06-24T10:34:44.478Z,9744
2017-06-24T10:35:45.106Z,9916
2017-06-24T10:36:44.772Z,9692
2017-06-24T10:37:44.766Z,9920
2017-06-24T10:38:44.760Z,9900
2017-06-24T10:39:45.064Z,10492
2017-06-24T10:40:44.742Z,12092
2017-06-24T10:41:44.420Z,15324
2017-06-24T10:42:45.038Z,18336
2017-06-24T10:43:44.414Z,17152
2017-06-24T10:44:44.399Z,14132
2017-06-24T10:45:44.390Z,13288
2017-06-24T10:46:44.385Z,13988
2017-06-24T10:47:44.405Z,10860
2017-06-24T10:48:44.679Z,10692
2017-06-24T10:49:44.679Z,11672
2017-06-24T10:50:44.663Z,11736
2017-06-24T10:51:44.655Z,10924
2017-06-24T10:52:44.650Z,11388
2017-06-24T10:53:44.330Z,10028
2017-06-24T10:54:44.684Z,8420
2017-06-24T10:55:44.949Z,8604
2017-06-24T10:56:44.941Z,8856
2017-06-24T10:57:44.614Z,8144
2017-06-24T10:58:43.975Z,7540
2017-06-24T10:59:44.297Z,7684
2017-06-24T11:00:44.600Z,7296
2017-06-24T11:01:44.579Z,7020
2017-06-24T11:02:44.588Z,6652
2017-06-24T11:03:44.254Z,5716
2017-06-24T11:04:44.248Z,5992
2017-06-24T11:05:44.551Z,6408
2017-06-24T11:06:44.862Z,6988
2017-06-24T11:07:44.224Z,6660
2017-06-24T11:08:44.531Z,6996
2017-06-24T11:09:44.517Z,7044
2017-06-24T11:10:44.841Z,7368
2017-06-24T11:11:44.198Z,7432
2017-06-24T11:12:44.494Z,7676
2017-06-24T11:13:44.492Z,7576
2017-06-24T11:14:44.482Z,8096
2017-06-24T11:15:44.471Z,7964
2017-06-24T11:16:44.465Z,8792
2017-06-24T11:17:44.138Z,9124
2017-06-24T11:18:44.446Z,9260
2017-06-24T11:19:44.759Z,8928
2017-06-24T11:20:44.434Z,8060
2017-06-24T11:21:44.421Z,7384
2017-06-24T11:22:44.096Z,6944
2017-06-24T11:23:44.716Z,6720
2017-06-24T11:24:44.395Z,6224
2017-06-24T11:25:44.391Z,6140
2017-06-24T11:26:44.434Z,7624
2017-06-24T11:27:44.690Z,8164
2017-06-24T11:28:44.365Z,8076
2017-06-24T11:29:44.048Z,8360
2017-06-24T11:30:44.350Z,8396
2017-06-24T11:31:44.653Z,9204
2017-06-24T11:32:44.650Z,9364
2017-06-24T11:33:44.323Z,8812
2017-06-24T11:34:44.322Z,8584
2017-06-24T11:35:44.331Z,9100
2017-06-24T11:36:44.006Z,9648
2017-06-24T11:37:44.304Z,9492
2017-06-24T11:38:43.970Z,8880
2017-06-24T11:39:44.277Z,9352
2017-06-24T11:40:44.581Z,9876
2017-06-24T11:41:44.305Z,9384
2017-06-24T11:42:43.934Z,8300
2017-06-24T11:43:44.239Z,7528
2017-06-24T11:44:44.237Z,8084
2017-06-24T11:45:44.230Z,8916
2017-06-24T11:46:44.217Z,8400
2017-06-24T11:47:44.524Z,8684
2017-06-24T11:48:43.889Z,8900
2017-06-24T11:49:43.885Z,8820
2017-06-24T11:50:44.535Z,8424
2017-06-24T11:51:44.177Z,8664
2017-06-24T11:52:43.856Z,9508
2017-06-24T11:53:43.847Z,9264
2017-06-24T11:54:44.155Z,8068
2017-06-24T11:55:43.842Z,7152
2017-06-24T11:56:44.139Z,7572
2017-06-24T11:57:43.506Z,7284
2017-06-24T11:58:44.432Z,5540
2017-06-24T11:59:44.449Z,5476
2017-06-24T12:00:43.832Z,5988
2017-06-24T12:01:44.411Z,5828
2017-06-24T12:02:44.401Z,6868
2017-06-24T12:03:43.827Z,7744
2017-06-24T12:04:43.757Z,6740
2017-06-24T12:05:43.753Z,5500
2017-06-24T12:06:44.063Z,5624
2017-06-24T12:07:43.743Z,5504
2017-06-24T12:08:44.036Z,6008
2017-06-24T12:09:44.094Z,6152
2017-06-24T12:10:43.756Z,5648
2017-06-24T12:11:44.024Z,6220
2017-06-24T12:12:43.695Z,5892
2017-06-24T12:13:44.328Z,6500
2017-06-24T12:14:44.301Z,7396
2017-06-24T12:15:43.674Z,7760
2017-06-24T12:16:43.977Z,7812
2017-06-24T12:17:44.293Z,8168
2017-06-24T12:18:44.275Z,8236
2017-06-24T12:19:44.271Z,8324
2017-06-24T12:20:43.991Z,8512
2017-06-24T12:21:43.629Z,8640
2017-06-24T12:22:43.945Z,8548
2017-06-24T12:23:43.919Z,8088
2017-06-24T12:24:43.594Z,8876
2017-06-24T12:25:43.912Z,8932
2017-06-24T12:26:43.584Z,9548
2017-06-24T12:27:44.198Z,8756
2017-06-24T12:28:44.185Z,7724
2017-06-24T12:29:43.260Z,7796
2017-06-24T12:30:43.875Z,8360
2017-06-24T12:31:44.166Z,8220
2017-06-24T12:32:44.164Z,9072
2017-06-24T12:33:44.155Z,9056
2017-06-24T12:34:43.831Z,9144
2017-06-24T12:35:44.131Z,9912
2017-06-24T12:36:43.920Z,10668
2017-06-24T12:37:43.521Z,10912
2017-06-24T12:38:43.800Z,10256
2017-06-24T12:39:43.161Z,10028
2017-06-24T12:40:43.782Z,10056
2017-06-24T12:41:44.103Z,10956
2017-06-24T12:42:43.465Z,11096
2017-06-24T12:43:43.442Z,10480
2017-06-24T12:44:44.080Z,12088
2017-06-24T12:45:43.431Z,13892
2017-06-24T12:46:43.428Z,12188
2017-06-24T12:47:43.724Z,11836
2017-06-24T12:48:43.092Z,8688
2017-06-24T12:49:43.748Z,6852
2017-06-24T12:50:43.385Z,6668
2017-06-24T12:51:43.377Z,6528
2017-06-24T12:52:44.000Z,6632
2017-06-24T12:53:43.364Z,6956
2017-06-24T12:54:43.674Z,6600
2017-06-24T12:55:43.676Z,8996
2017-06-24T12:56:43.962Z,8028
2017-06-24T12:57:43.646Z,7216
2017-06-24T12:58:44.011Z,8876
2017-06-24T12:59:43.316Z,9300
2017-06-24T13:00:43.309Z,8828
2017-06-24T13:01:43.928Z,9492
2017-06-24T13:02:43.917Z,10284
2017-06-24T13:03:43.598Z,9972
2017-06-24T13:04:43.910Z,8180
2017-06-24T13:05:43.595Z,8208
2017-06-24T13:06:43.576Z,7184
2017-06-24T13:07:43.565Z,7884
2017-06-24T13:08:43.561Z,9096
2017-06-24T13:09:43.551Z,10028
2017-06-24T13:10:42.953Z,12128
2017-06-24T13:11:43.230Z,14320
2017-06-24T13:12:43.217Z,7892
2017-06-24T13:13:43.520Z,6920
2017-06-24T13:14:43.828Z,9092
2017-06-24T13:15:43.193Z,9464
2017-06-24T13:16:43.498Z,8984
2017-06-24T13:17:43.799Z,7484
2017-06-24T13:18:43.174Z,6296
2017-06-24T13:19:43.803Z,5692
2017-06-24T13:20:43.466Z,5188
2017-06-24T13:21:43.143Z,4848
2017-06-24T13:22:43.135Z,5104
2017-06-24T13:23:43.760Z,6232
2017-06-24T13:24:43.125Z,4756
2017-06-24T13:25:43.440Z,4520
2017-06-24T13:26:43.747Z,4336
2017-06-24T13:27:43.724Z,5044
2017-06-24T13:28:43.403Z,5504
2017-06-24T13:29:43.395Z,4820
2017-06-24T13:30:43.383Z,4604
2017-06-24T13:31:43.067Z,5016
2017-06-24T13:32:43.691Z,5184
2017-06-24T13:33:43.377Z,5856
2017-06-24T13:34:43.361Z,5448